sensor_id;sensor_type;location;lat;lon;timestamp;temperature;humidity
32322;DHT22;61553;48.994;8.940;2023-04-21T00:02:24;2.50;99.90
32322;DHT22;61553;48.994;8.940;2023-04-21T00:04:52;2.30;99.90
32322;DHT22;61553;48.994;8.940;2023-04-21T00:07:17;2.30;99.90
32322;DHT22;61553;48.994;8.940;2023-04-21T00:09:44;2.30;99.90
32322;DHT22;61553;48.994;8.940;2023-04-21T00:12:10;2.40;99.90
32322;DHT22;61553;48.994;8.940;2023-04-21T00:14:36;2.40;99.90
32322;DHT22;61553;48.994;8.940;2023-04-21T00:17:02;2.60;99.90
32322;DHT22;61553;48.994;8.940;2023-04-21T00:19:28;2.50;99.90
32322;DHT22;61553;48.994;8.940;2023-04-21T00:21:54;2.70;99.90
32322;DHT22;61553;48.994;8.940;2023-04-21T00:24:23;2.60;99.90
32322;DHT22;61553;48.994;8.940;2023-04-21T00:26:50;2.50;99.90
32322;DHT22;61553;48.994;8.940;2023-04-21T00:29:15;2.50;99.90
32322;DHT22;61553;48.994;8.940;2023-04-21T00:31:41;2.50;99.90
32322;DHT22;61553;48.994;8.940;2023-04-21T00:34:07;2.50;99.90
32322;DHT22;61553;48.994;8.940;2023-04-21T00:36:32;2.60;99.90
32322;DHT22;61553;48.994;8.940;2023-04-21T00:38:58;2.40;99.90
32322;DHT22;61553;48.994;8.940;2023-04-21T00:41:24;2.80;99.90
32322;DHT22;61553;48.994;8.940;2023-04-21T00:44:06;2.40;99.90
32322;DHT22;61553;48.994;8.940;2023-04-21T00:46:33;2.70;99.90
32322;DHT22;61553;48.994;8.940;2023-04-21T00:49:03;2.70;99.90
32322;DHT22;61553;48.994;8.940;2023-04-21T00:51:29;2.80;99.90
32322;DHT22;61553;48.994;8.940;2023-04-21T00:53:58;2.70;99.90
32322;DHT22;61553;48.994;8.940;2023-04-21T00:56:25;2.80;99.90
32322;DHT22;61553;48.994;8.940;2023-04-21T00:58:51;2.90;99.90
32322;DHT22;61553;48.994;8.940;2023-04-21T01:01:18;3.00;99.90
32322;DHT22;61553;48.994;8.940;2023-04-21T01:03:44;3.00;99.90
32322;DHT22;61553;48.994;8.940;2023-04-21T01:06:11;2.90;99.90
32322;DHT22;61553;48.994;8.940;2023-04-21T01:08:37;3.00;99.90
32322;DHT22;61553;48.994;8.940;2023-04-21T01:11:10;3.00;99.90
32322;DHT22;61553;48.994;8.940;2023-04-21T01:13:37;3.00;99.90
32322;DHT22;61553;48.994;8.940;2023-04-21T01:16:02;3.00;99.90
32322;DHT22;61553;48.994;8.940;2023-04-21T01:18:28;3.00;99.90
32322;DHT22;61553;48.994;8.940;2023-04-21T01:20:54;3.10;99.90
32322;DHT22;61553;48.994;8.940;2023-04-21T01:23:21;3.10;99.90
32322;DHT22;61553;48.994;8.940;2023-04-21T01:25:47;3.10;99.90
32322;DHT22;61553;48.994;8.940;2023-04-21T01:28:13;3.10;99.90
32322;DHT22;61553;48.994;8.940;2023-04-21T01:30:38;3.10;99.90
32322;DHT22;61553;48.994;8.940;2023-04-21T01:33:04;3.00;99.90
32322;DHT22;61553;48.994;8.940;2023-04-21T01:35:30;3.00;99.90
32322;DHT22;61553;48.994;8.940;2023-04-21T01:37:55;2.90;99.90
32322;DHT22;61553;48.994;8.940;2023-04-21T01:40:21;2.80;99.90
32322;DHT22;61553;48.994;8.940;2023-04-21T01:42:47;2.90;99.90
32322;DHT22;61553;48.994;8.940;2023-04-21T01:45:12;2.80;99.90
32322;DHT22;61553;48.994;8.940;2023-04-21T01:47:38;2.80;99.90
32322;DHT22;61553;48.994;8.940;2023-04-21T01:50:04;2.80;99.90
32322;DHT22;61553;48.994;8.940;2023-04-21T01:52:30;2.80;99.90
32322;DHT22;61553;48.994;8.940;2023-04-21T01:54:55;2.70;99.90
32322;DHT22;61553;48.994;8.940;2023-04-21T01:57:21;2.70;99.90
32322;DHT22;61553;48.994;8.940;2023-04-21T01:59:46;2.60;99.90
32322;DHT22;61553;48.994;8.940;2023-04-21T02:02:13;2.60;99.90
32322;DHT22;61553;48.994;8.940;2023-04-21T02:04:39;2.50;99.90
32322;DHT22;61553;48.994;8.940;2023-04-21T02:07:05;2.40;99.90
32322;DHT22;61553;48.994;8.940;2023-04-21T02:09:31;2.40;99.90
32322;DHT22;61553;48.994;8.940;2023-04-21T02:11:57;2.30;99.90
32322;DHT22;61553;48.994;8.940;2023-04-21T02:14:24;2.20;99.90
32322;DHT22;61553;48.994;8.940;2023-04-21T02:16:50;2.20;99.90
32322;DHT22;61553;48.994;8.940;2023-04-21T02:19:15;2.30;99.90
32322;DHT22;61553;48.994;8.940;2023-04-21T02:21:41;2.20;99.90
32322;DHT22;61553;48.994;8.940;2023-04-21T02:24:06;2.20;99.90
32322;DHT22;61553;48.994;8.940;2023-04-21T02:26:32;2.20;99.90
32322;DHT22;61553;48.994;8.940;2023-04-21T02:28:58;2.20;99.90
32322;DHT22;61553;48.994;8.940;2023-04-21T02:31:23;2.10;99.90
32322;DHT22;61553;48.994;8.940;2023-04-21T02:33:49;2.10;99.90
32322;DHT22;61553;48.994;8.940;2023-04-21T02:36:15;2.30;99.90
32322;DHT22;61553;48.994;8.940;2023-04-21T02:38:40;2.30;99.90
32322;DHT22;61553;48.994;8.940;2023-04-21T02:41:06;2.30;99.90
32322;DHT22;61553;48.994;8.940;2023-04-21T02:43:31;2.10;99.90
32322;DHT22;61553;48.994;8.940;2023-04-21T02:45:57;2.10;99.90
32322;DHT22;61553;48.994;8.940;2023-04-21T02:48:23;1.80;99.90
32322;DHT22;61553;48.994;8.940;2023-04-21T02:50:49;1.90;99.90
32322;DHT22;61553;48.994;8.940;2023-04-21T02:53:15;1.70;99.90
32322;DHT22;61553;48.994;8.940;2023-04-21T02:55:41;1.80;99.90
32322;DHT22;61553;48.994;8.940;2023-04-21T02:58:07;1.80;99.90
32322;DHT22;61553;48.994;8.940;2023-04-21T03:00:32;1.80;99.90
32322;DHT22;61553;48.994;8.940;2023-04-21T03:03:14;1.60;99.90
32322;DHT22;61553;48.994;8.940;2023-04-21T03:05:40;1.50;99.90
32322;DHT22;61553;48.994;8.940;2023-04-21T03:08:06;1.30;99.90
32322;DHT22;61553;48.994;8.940;2023-04-21T03:10:31;1.20;99.90
32322;DHT22;61553;48.994;8.940;2023-04-21T03:12:57;1.10;99.90
32322;DHT22;61553;48.994;8.940;2023-04-21T03:15:23;1.00;99.90
32322;DHT22;61553;48.994;8.940;2023-04-21T03:17:48;1.10;99.90
32322;DHT22;61553;48.994;8.940;2023-04-21T03:20:14;0.80;99.90
32322;DHT22;61553;48.994;8.940;2023-04-21T03:22:40;0.80;99.90
32322;DHT22;61553;48.994;8.940;2023-04-21T03:25:06;0.70;99.90
32322;DHT22;61553;48.994;8.940;2023-04-21T03:27:32;0.60;99.90
32322;DHT22;61553;48.994;8.940;2023-04-21T03:29:58;0.70;99.90
32322;DHT22;61553;48.994;8.940;2023-04-21T03:32:24;0.80;99.90
32322;DHT22;61553;48.994;8.940;2023-04-21T03:34:50;0.80;99.90
32322;DHT22;61553;48.994;8.940;2023-04-21T03:37:15;0.80;99.90
32322;DHT22;61553;48.994;8.940;2023-04-21T03:39:41;1.10;99.90
32322;DHT22;61553;48.994;8.940;2023-04-21T03:42:07;0.90;99.90
32322;DHT22;61553;48.994;8.940;2023-04-21T03:44:33;0.90;99.90
32322;DHT22;61553;48.994;8.940;2023-04-21T03:46:58;0.80;99.90
32322;DHT22;61553;48.994;8.940;2023-04-21T03:49:24;0.90;99.90
32322;DHT22;61553;48.994;8.940;2023-04-21T03:51:50;0.90;99.90
32322;DHT22;61553;48.994;8.940;2023-04-21T03:54:16;0.90;99.90
32322;DHT22;61553;48.994;8.940;2023-04-21T03:56:41;0.90;99.90
32322;DHT22;61553;48.994;8.940;2023-04-21T03:59:07;1.10;99.90
32322;DHT22;61553;48.994;8.940;2023-04-21T04:01:33;1.00;99.90
32322;DHT22;61553;48.994;8.940;2023-04-21T04:03:59;1.20;99.90
32322;DHT22;61553;48.994;8.940;2023-04-21T04:06:24;1.10;99.90
32322;DHT22;61553;48.994;8.940;2023-04-21T04:08:50;1.10;99.90
32322;DHT22;61553;48.994;8.940;2023-04-21T04:11:16;1.20;99.90
32322;DHT22;61553;48.994;8.940;2023-04-21T04:13:42;1.20;99.90
32322;DHT22;61553;48.994;8.940;2023-04-21T04:16:07;1.20;99.90
32322;DHT22;61553;48.994;8.940;2023-04-21T04:18:33;1.30;99.90
32322;DHT22;61553;48.994;8.940;2023-04-21T04:21:04;1.20;99.90
32322;DHT22;61553;48.994;8.940;2023-04-21T04:23:30;1.30;99.90
32322;DHT22;61553;48.994;8.940;2023-04-21T04:25:56;1.60;99.90
32322;DHT22;61553;48.994;8.940;2023-04-21T04:28:22;1.30;99.90
32322;DHT22;61553;48.994;8.940;2023-04-21T04:30:47;1.70;99.90
32322;DHT22;61553;48.994;8.940;2023-04-21T04:33:13;1.30;99.90
32322;DHT22;61553;48.994;8.940;2023-04-21T04:35:38;1.40;99.90
32322;DHT22;61553;48.994;8.940;2023-04-21T04:38:04;1.40;99.90
32322;DHT22;61553;48.994;8.940;2023-04-21T04:40:32;1.60;99.90
32322;DHT22;61553;48.994;8.940;2023-04-21T04:42:58;1.50;99.90
32322;DHT22;61553;48.994;8.940;2023-04-21T04:45:25;1.50;99.90
32322;DHT22;61553;48.994;8.940;2023-04-21T04:47:52;1.50;99.90
32322;DHT22;61553;48.994;8.940;2023-04-21T04:50:18;1.40;99.90
32322;DHT22;61553;48.994;8.940;2023-04-21T04:52:44;1.50;99.90
32322;DHT22;61553;48.994;8.940;2023-04-21T04:55:11;1.50;99.90
32322;DHT22;61553;48.994;8.940;2023-04-21T04:57:37;1.60;99.90
32322;DHT22;61553;48.994;8.940;2023-04-21T05:00:05;1.70;99.90
32322;DHT22;61553;48.994;8.940;2023-04-21T05:02:37;1.80;99.90
32322;DHT22;61553;48.994;8.940;2023-04-21T05:05:04;1.90;99.90
32322;DHT22;61553;48.994;8.940;2023-04-21T05:07:29;2.00;99.90
32322;DHT22;61553;48.994;8.940;2023-04-21T05:09:55;2.00;99.90
32322;DHT22;61553;48.994;8.940;2023-04-21T05:12:21;2.10;99.90
32322;DHT22;61553;48.994;8.940;2023-04-21T05:14:46;2.20;99.90
32322;DHT22;61553;48.994;8.940;2023-04-21T05:17:12;2.20;99.90
32322;DHT22;61553;48.994;8.940;2023-04-21T05:19:37;2.30;99.90
32322;DHT22;61553;48.994;8.940;2023-04-21T05:22:03;2.30;99.90
32322;DHT22;61553;48.994;8.940;2023-04-21T05:24:33;2.30;99.90
32322;DHT22;61553;48.994;8.940;2023-04-21T05:27:00;2.80;99.90
32322;DHT22;61553;48.994;8.940;2023-04-21T05:29:27;2.40;99.90
32322;DHT22;61553;48.994;8.940;2023-04-21T05:31:54;2.40;99.90
32322;DHT22;61553;48.994;8.940;2023-04-21T05:34:19;2.40;99.90
32322;DHT22;61553;48.994;8.940;2023-04-21T05:36:45;2.60;99.90
32322;DHT22;61553;48.994;8.940;2023-04-21T05:39:13;2.70;99.90
32322;DHT22;61553;48.994;8.940;2023-04-21T05:41:38;2.80;99.90
32322;DHT22;61553;48.994;8.940;2023-04-21T05:44:04;2.90;99.90
32322;DHT22;61553;48.994;8.940;2023-04-21T05:46:30;3.00;99.90
32322;DHT22;61553;48.994;8.940;2023-04-21T05:48:55;3.20;99.90
32322;DHT22;61553;48.994;8.940;2023-04-21T05:51:21;3.40;99.90
32322;DHT22;61553;48.994;8.940;2023-04-21T05:53:46;3.60;99.90
32322;DHT22;61553;48.994;8.940;2023-04-21T05:56:12;3.80;99.90
32322;DHT22;61553;48.994;8.940;2023-04-21T05:58:38;3.90;99.90
32322;DHT22;61553;48.994;8.940;2023-04-21T06:01:04;4.30;99.90
32322;DHT22;61553;48.994;8.940;2023-04-21T06:03:33;4.40;99.90
32322;DHT22;61553;48.994;8.940;2023-04-21T06:05:59;4.50;99.90
32322;DHT22;61553;48.994;8.940;2023-04-21T06:08:25;4.70;99.90
32322;DHT22;61553;48.994;8.940;2023-04-21T06:10:51;4.80;99.90
32322;DHT22;61553;48.994;8.940;2023-04-21T06:13:17;4.90;99.90
32322;DHT22;61553;48.994;8.940;2023-04-21T06:15:43;4.90;99.90
32322;DHT22;61553;48.994;8.940;2023-04-21T06:18:08;4.90;99.90
32322;DHT22;61553;48.994;8.940;2023-04-21T06:20:34;4.90;99.90
32322;DHT22;61553;48.994;8.940;2023-04-21T06:23:00;5.00;99.90
32322;DHT22;61553;48.994;8.940;2023-04-21T06:25:25;5.30;99.90
32322;DHT22;61553;48.994;8.940;2023-04-21T06:27:51;5.00;99.90
32322;DHT22;61553;48.994;8.940;2023-04-21T06:30:16;5.20;99.90
32322;DHT22;61553;48.994;8.940;2023-04-21T06:32:43;5.40;99.90
32322;DHT22;61553;48.994;8.940;2023-04-21T06:35:12;5.80;99.90
32322;DHT22;61553;48.994;8.940;2023-04-21T06:37:40;6.40;99.90
32322;DHT22;61553;48.994;8.940;2023-04-21T06:40:06;6.70;99.90
32322;DHT22;61553;48.994;8.940;2023-04-21T06:42:32;7.50;99.90
32322;DHT22;61553;48.994;8.940;2023-04-21T06:44:58;8.40;99.90
32322;DHT22;61553;48.994;8.940;2023-04-21T06:47:23;8.90;99.90
32322;DHT22;61553;48.994;8.940;2023-04-21T06:49:49;9.40;99.90
32322;DHT22;61553;48.994;8.940;2023-04-21T06:52:14;9.90;99.90
32322;DHT22;61553;48.994;8.940;2023-04-21T06:54:40;11.30;99.90
32322;DHT22;61553;48.994;8.940;2023-04-21T06:57:06;12.50;99.90
32322;DHT22;61553;48.994;8.940;2023-04-21T06:59:31;12.90;99.90
32322;DHT22;61553;48.994;8.940;2023-04-21T07:01:58;13.10;99.90
32322;DHT22;61553;48.994;8.940;2023-04-21T07:04:24;12.70;99.90
32322;DHT22;61553;48.994;8.940;2023-04-21T07:06:54;13.20;99.90
32322;DHT22;61553;48.994;8.940;2023-04-21T07:09:20;13.60;99.90
32322;DHT22;61553;48.994;8.940;2023-04-21T07:11:46;14.40;99.90
32322;DHT22;61553;48.994;8.940;2023-04-21T07:14:11;14.00;99.90
32322;DHT22;61553;48.994;8.940;2023-04-21T07:16:37;14.90;99.90
32322;DHT22;61553;48.994;8.940;2023-04-21T07:19:02;15.40;99.10
32322;DHT22;61553;48.994;8.940;2023-04-21T07:21:28;15.60;96.90
32322;DHT22;61553;48.994;8.940;2023-04-21T07:24:01;15.70;96.10
32322;DHT22;61553;48.994;8.940;2023-04-21T07:26:26;16.30;93.80
32322;DHT22;61553;48.994;8.940;2023-04-21T07:28:52;16.50;90.50
32322;DHT22;61553;48.994;8.940;2023-04-21T07:31:20;16.10;92.20
32322;DHT22;61553;48.994;8.940;2023-04-21T07:33:45;15.60;92.70
32322;DHT22;61553;48.994;8.940;2023-04-21T07:36:11;15.40;93.10
32322;DHT22;61553;48.994;8.940;2023-04-21T07:38:37;15.10;93.40
32322;DHT22;61553;48.994;8.940;2023-04-21T07:41:10;15.90;93.10
32322;DHT22;61553;48.994;8.940;2023-04-21T07:43:39;16.90;89.30
32322;DHT22;61553;48.994;8.940;2023-04-21T07:46:05;16.50;88.30
32322;DHT22;61553;48.994;8.940;2023-04-21T07:48:31;15.90;90.00
32322;DHT22;61553;48.994;8.940;2023-04-21T07:50:56;15.40;90.70
32322;DHT22;61553;48.994;8.940;2023-04-21T07:53:25;14.50;91.90
32322;DHT22;61553;48.994;8.940;2023-04-21T07:55:51;13.80;94.50
32322;DHT22;61553;48.994;8.940;2023-04-21T07:58:17;13.10;95.60
32322;DHT22;61553;48.994;8.940;2023-04-21T08:00:43;12.60;97.20
32322;DHT22;61553;48.994;8.940;2023-04-21T08:03:08;12.20;99.30
32322;DHT22;61553;48.994;8.940;2023-04-21T08:05:34;12.10;99.90
32322;DHT22;61553;48.994;8.940;2023-04-21T08:08:00;12.10;99.90
32322;DHT22;61553;48.994;8.940;2023-04-21T08:10:26;12.10;99.90
32322;DHT22;61553;48.994;8.940;2023-04-21T08:12:52;12.10;99.90
32322;DHT22;61553;48.994;8.940;2023-04-21T08:15:17;12.00;99.90
32322;DHT22;61553;48.994;8.940;2023-04-21T08:17:43;12.30;99.90
32322;DHT22;61553;48.994;8.940;2023-04-21T08:20:09;12.80;99.90
32322;DHT22;61553;48.994;8.940;2023-04-21T08:22:35;13.30;99.90
32322;DHT22;61553;48.994;8.940;2023-04-21T08:25:04;13.90;99.60
32322;DHT22;61553;48.994;8.940;2023-04-21T08:27:30;15.20;97.80
32322;DHT22;61553;48.994;8.940;2023-04-21T08:29:56;17.10;92.10
32322;DHT22;61553;48.994;8.940;2023-04-21T08:32:22;17.80;86.90
32322;DHT22;61553;48.994;8.940;2023-04-21T08:34:52;18.50;81.80
32322;DHT22;61553;48.994;8.940;2023-04-21T08:37:18;19.50;78.30
32322;DHT22;61553;48.994;8.940;2023-04-21T08:39:44;20.80;73.20
32322;DHT22;61553;48.994;8.940;2023-04-21T08:42:17;20.90;69.30
32322;DHT22;61553;48.994;8.940;2023-04-21T08:44:44;21.90;65.40
32322;DHT22;61553;48.994;8.940;2023-04-21T08:47:10;23.10;61.80
32322;DHT22;61553;48.994;8.940;2023-04-21T08:49:38;24.30;59.40
32322;DHT22;61553;48.994;8.940;2023-04-21T08:52:04;25.50;54.30
32322;DHT22;61553;48.994;8.940;2023-04-21T08:54:30;26.20;53.50
32322;DHT22;61553;48.994;8.940;2023-04-21T08:56:56;28.40;48.40
32322;DHT22;61553;48.994;8.940;2023-04-21T08:59:22;29.10;45.50
32322;DHT22;61553;48.994;8.940;2023-04-21T09:04:45;30.10;43.00
32322;DHT22;61553;48.994;8.940;2023-04-21T09:07:28;29.50;43.20
32322;DHT22;61553;48.994;8.940;2023-04-21T09:09:55;30.40;42.00
32322;DHT22;61553;48.994;8.940;2023-04-21T09:12:22;29.50;43.00
32322;DHT22;61553;48.994;8.940;2023-04-21T09:14:47;30.20;42.00
32322;DHT22;61553;48.994;8.940;2023-04-21T09:17:15;30.20;42.30
32322;DHT22;61553;48.994;8.940;2023-04-21T09:19:41;30.00;41.30
32322;DHT22;61553;48.994;8.940;2023-04-21T09:22:07;30.40;41.20
32322;DHT22;61553;48.994;8.940;2023-04-21T09:24:33;29.90;40.90
32322;DHT22;61553;48.994;8.940;2023-04-21T09:27:02;30.00;42.40
32322;DHT22;61553;48.994;8.940;2023-04-21T09:29:29;30.50;41.60
32322;DHT22;61553;48.994;8.940;2023-04-21T09:31:54;30.00;41.80
32322;DHT22;61553;48.994;8.940;2023-04-21T09:34:23;30.20;41.60
32322;DHT22;61553;48.994;8.940;2023-04-21T09:37:02;30.60;40.00
32322;DHT22;61553;48.994;8.940;2023-04-21T09:39:29;30.40;40.40
32322;DHT22;61553;48.994;8.940;2023-04-21T09:41:56;29.70;40.80
32322;DHT22;61553;48.994;8.940;2023-04-21T09:44:26;30.60;39.90
32322;DHT22;61553;48.994;8.940;2023-04-21T09:47:03;30.20;40.40
32322;DHT22;61553;48.994;8.940;2023-04-21T09:49:30;29.90;40.60
32322;DHT22;61553;48.994;8.940;2023-04-21T09:52:00;29.90;40.80
32322;DHT22;61553;48.994;8.940;2023-04-21T09:54:33;29.00;41.50
32322;DHT22;61553;48.994;8.940;2023-04-21T09:57:03;29.90;41.20
32322;DHT22;61553;48.994;8.940;2023-04-21T09:59:35;30.40;40.80
32322;DHT22;61553;48.994;8.940;2023-04-21T10:02:04;30.60;40.20
32322;DHT22;61553;48.994;8.940;2023-04-21T10:04:30;30.10;40.90
32322;DHT22;61553;48.994;8.940;2023-04-21T10:06:59;28.80;42.70
32322;DHT22;61553;48.994;8.940;2023-04-21T10:09:29;28.80;42.50
32322;DHT22;61553;48.994;8.940;2023-04-21T10:11:56;27.40;44.10
32322;DHT22;61553;48.994;8.940;2023-04-21T10:14:24;28.20;42.10
32322;DHT22;61553;48.994;8.940;2023-04-21T10:17:03;28.60;42.40
32322;DHT22;61553;48.994;8.940;2023-04-21T10:19:29;29.50;41.50
32322;DHT22;61553;48.994;8.940;2023-04-21T10:21:59;30.50;41.30
32322;DHT22;61553;48.994;8.940;2023-04-21T10:24:29;30.80;40.40
32322;DHT22;61553;48.994;8.940;2023-04-21T10:26:56;30.40;40.60
32322;DHT22;61553;48.994;8.940;2023-04-21T10:29:31;30.80;40.30
32322;DHT22;61553;48.994;8.940;2023-04-21T10:31:57;29.70;39.80
32322;DHT22;61553;48.994;8.940;2023-04-21T10:34:34;28.40;41.10
32322;DHT22;61553;48.994;8.940;2023-04-21T10:39:43;25.70;44.90
32322;DHT22;61553;48.994;8.940;2023-04-21T10:45:13;23.50;50.40
32322;DHT22;61553;48.994;8.940;2023-04-21T10:50:29;21.80;54.80
32322;DHT22;61553;48.994;8.940;2023-04-21T10:53:10;21.50;54.60
32322;DHT22;61553;48.994;8.940;2023-04-21T10:55:36;21.40;55.40
32322;DHT22;61553;48.994;8.940;2023-04-21T10:58:04;21.20;56.90
32322;DHT22;61553;48.994;8.940;2023-04-21T11:00:30;20.90;57.70
32322;DHT22;61553;48.994;8.940;2023-04-21T11:05:31;20.10;59.60
32322;DHT22;61553;48.994;8.940;2023-04-21T11:08:17;19.90;60.10
32322;DHT22;61553;48.994;8.940;2023-04-21T11:13:20;19.20;61.40
32322;DHT22;61553;48.994;8.940;2023-04-21T11:16:12;18.90;63.60
32322;DHT22;61553;48.994;8.940;2023-04-21T11:18:39;18.60;63.70
32322;DHT22;61553;48.994;8.940;2023-04-21T11:21:07;18.60;65.40
32322;DHT22;61553;48.994;8.940;2023-04-21T11:23:33;18.50;65.40
32322;DHT22;61553;48.994;8.940;2023-04-21T11:25:58;18.20;66.80
32322;DHT22;61553;48.994;8.940;2023-04-21T11:28:24;18.30;67.70
32322;DHT22;61553;48.994;8.940;2023-04-21T11:30:50;18.30;67.50
32322;DHT22;61553;48.994;8.940;2023-04-21T11:33:15;18.30;66.80
32322;DHT22;61553;48.994;8.940;2023-04-21T11:35:42;18.20;68.30
32322;DHT22;61553;48.994;8.940;2023-04-21T11:38:08;18.50;69.00
32322;DHT22;61553;48.994;8.940;2023-04-21T11:40:47;18.80;67.90
32322;DHT22;61553;48.994;8.940;2023-04-21T11:43:13;18.90;66.20
32322;DHT22;61553;48.994;8.940;2023-04-21T11:45:42;18.80;66.70
32322;DHT22;61553;48.994;8.940;2023-04-21T11:48:17;18.80;67.20
32322;DHT22;61553;48.994;8.940;2023-04-21T11:50:50;18.80;67.20
32322;DHT22;61553;48.994;8.940;2023-04-21T11:53:15;18.80;66.90
32322;DHT22;61553;48.994;8.940;2023-04-21T11:55:44;18.90;66.90
32322;DHT22;61553;48.994;8.940;2023-04-21T11:58:10;18.80;68.00
32322;DHT22;61553;48.994;8.940;2023-04-21T12:00:43;18.80;68.40
32322;DHT22;61553;48.994;8.940;2023-04-21T12:03:08;18.90;68.40
32322;DHT22;61553;48.994;8.940;2023-04-21T12:05:35;19.00;69.30
32322;DHT22;61553;48.994;8.940;2023-04-21T12:08:01;19.00;68.40
32322;DHT22;61553;48.994;8.940;2023-04-21T12:10:29;18.90;69.30
32322;DHT22;61553;48.994;8.940;2023-04-21T12:12:55;18.90;68.40
32322;DHT22;61553;48.994;8.940;2023-04-21T12:15:21;18.70;69.40
32322;DHT22;61553;48.994;8.940;2023-04-21T12:17:52;18.60;69.70
32322;DHT22;61553;48.994;8.940;2023-04-21T12:20:19;18.60;70.00
32322;DHT22;61553;48.994;8.940;2023-04-21T12:22:47;18.40;69.80
32322;DHT22;61553;48.994;8.940;2023-04-21T12:25:13;18.40;70.60
32322;DHT22;61553;48.994;8.940;2023-04-21T12:27:53;18.50;70.00
32322;DHT22;61553;48.994;8.940;2023-04-21T12:30:19;18.50;70.20
32322;DHT22;61553;48.994;8.940;2023-04-21T12:32:45;18.50;70.50
32322;DHT22;61553;48.994;8.940;2023-04-21T12:35:12;18.40;70.20
32322;DHT22;61553;48.994;8.940;2023-04-21T12:37:38;18.40;72.20
32322;DHT22;61553;48.994;8.940;2023-04-21T12:40:04;18.50;71.80
32322;DHT22;61553;48.994;8.940;2023-04-21T12:42:30;18.60;71.70
32322;DHT22;61553;48.994;8.940;2023-04-21T12:44:56;18.70;70.50
32322;DHT22;61553;48.994;8.940;2023-04-21T12:47:21;18.60;70.40
32322;DHT22;61553;48.994;8.940;2023-04-21T12:49:47;18.60;71.10
32322;DHT22;61553;48.994;8.940;2023-04-21T12:52:13;18.70;72.50
32322;DHT22;61553;48.994;8.940;2023-04-21T12:54:38;18.80;71.40
32322;DHT22;61553;48.994;8.940;2023-04-21T12:57:05;18.80;71.50
32322;DHT22;61553;48.994;8.940;2023-04-21T12:59:31;18.90;70.60
32322;DHT22;61553;48.994;8.940;2023-04-21T13:01:57;19.00;71.70
32322;DHT22;61553;48.994;8.940;2023-04-21T13:04:22;19.10;71.40
32322;DHT22;61553;48.994;8.940;2023-04-21T13:06:48;19.10;71.90
32322;DHT22;61553;48.994;8.940;2023-04-21T13:09:13;19.00;70.20
32322;DHT22;61553;48.994;8.940;2023-04-21T13:11:39;19.00;71.00
32322;DHT22;61553;48.994;8.940;2023-04-21T13:14:05;18.90;69.90
32322;DHT22;61553;48.994;8.940;2023-04-21T13:16:31;18.90;71.80
32322;DHT22;61553;48.994;8.940;2023-04-21T13:18:57;19.00;71.00
32322;DHT22;61553;48.994;8.940;2023-04-21T13:21:23;18.90;70.50
32322;DHT22;61553;48.994;8.940;2023-04-21T13:23:49;19.00;69.40
32322;DHT22;61553;48.994;8.940;2023-04-21T13:26:14;19.00;68.10
32322;DHT22;61553;48.994;8.940;2023-04-21T13:28:40;19.00;69.20
32322;DHT22;61553;48.994;8.940;2023-04-21T13:31:06;19.00;70.20
32322;DHT22;61553;48.994;8.940;2023-04-21T13:33:32;19.00;68.90
32322;DHT22;61553;48.994;8.940;2023-04-21T13:36:00;18.90;70.20
32322;DHT22;61553;48.994;8.940;2023-04-21T13:38:27;19.00;70.50
32322;DHT22;61553;48.994;8.940;2023-04-21T13:40:52;19.10;70.20
32322;DHT22;61553;48.994;8.940;2023-04-21T13:43:18;19.30;70.10
32322;DHT22;61553;48.994;8.940;2023-04-21T13:45:44;19.30;69.10
32322;DHT22;61553;48.994;8.940;2023-04-21T13:48:11;19.20;69.90
32322;DHT22;61553;48.994;8.940;2023-04-21T13:50:37;19.30;69.40
32322;DHT22;61553;48.994;8.940;2023-04-21T13:53:02;19.30;70.20
32322;DHT22;61553;48.994;8.940;2023-04-21T13:55:28;19.40;69.90
32322;DHT22;61553;48.994;8.940;2023-04-21T13:57:54;19.30;71.20
32322;DHT22;61553;48.994;8.940;2023-04-21T14:00:19;19.40;70.20
32322;DHT22;61553;48.994;8.940;2023-04-21T14:02:46;19.30;70.10
32322;DHT22;61553;48.994;8.940;2023-04-21T14:05:12;19.30;69.30
32322;DHT22;61553;48.994;8.940;2023-04-21T14:07:38;19.20;70.90
32322;DHT22;61553;48.994;8.940;2023-04-21T14:10:04;19.30;71.40
32322;DHT22;61553;48.994;8.940;2023-04-21T14:12:29;19.50;70.90
32322;DHT22;61553;48.994;8.940;2023-04-21T14:14:55;19.50;69.50
32322;DHT22;61553;48.994;8.940;2023-04-21T14:17:21;19.40;69.20
32322;DHT22;61553;48.994;8.940;2023-04-21T14:19:47;19.40;69.40
32322;DHT22;61553;48.994;8.940;2023-04-21T14:22:13;19.50;68.60
32322;DHT22;61553;48.994;8.940;2023-04-21T14:24:38;19.40;69.40
32322;DHT22;61553;48.994;8.940;2023-04-21T14:27:04;19.50;69.80
32322;DHT22;61553;48.994;8.940;2023-04-21T14:29:30;19.60;69.40
32322;DHT22;61553;48.994;8.940;2023-04-21T14:31:56;19.60;69.30
32322;DHT22;61553;48.994;8.940;2023-04-21T14:34:26;19.70;70.10
32322;DHT22;61553;48.994;8.940;2023-04-21T14:36:52;19.80;68.60
32322;DHT22;61553;48.994;8.940;2023-04-21T14:39:18;19.70;69.60
32322;DHT22;61553;48.994;8.940;2023-04-21T14:41:43;19.80;69.90
32322;DHT22;61553;48.994;8.940;2023-04-21T14:44:09;20.00;69.40
32322;DHT22;61553;48.994;8.940;2023-04-21T14:46:35;20.00;68.40
32322;DHT22;61553;48.994;8.940;2023-04-21T14:49:00;20.00;70.10
32322;DHT22;61553;48.994;8.940;2023-04-21T14:51:26;20.00;69.30
32322;DHT22;61553;48.994;8.940;2023-04-21T14:53:52;20.00;68.80
32322;DHT22;61553;48.994;8.940;2023-04-21T14:56:18;20.00;68.60
32322;DHT22;61553;48.994;8.940;2023-04-21T14:58:43;20.00;68.90
32322;DHT22;61553;48.994;8.940;2023-04-21T15:01:09;20.10;69.00
32322;DHT22;61553;48.994;8.940;2023-04-21T15:03:36;20.10;70.00
32322;DHT22;61553;48.994;8.940;2023-04-21T15:06:02;20.10;69.90
32322;DHT22;61553;48.994;8.940;2023-04-21T15:08:28;20.10;69.90
32322;DHT22;61553;48.994;8.940;2023-04-21T15:10:53;20.20;68.90
32322;DHT22;61553;48.994;8.940;2023-04-21T15:13:20;20.30;68.60
32322;DHT22;61553;48.994;8.940;2023-04-21T15:15:45;20.20;68.30
32322;DHT22;61553;48.994;8.940;2023-04-21T15:18:11;20.20;69.30
32322;DHT22;61553;48.994;8.940;2023-04-21T15:20:36;20.10;68.80
32322;DHT22;61553;48.994;8.940;2023-04-21T15:23:02;20.10;69.10
32322;DHT22;61553;48.994;8.940;2023-04-21T15:25:28;20.20;68.50
32322;DHT22;61553;48.994;8.940;2023-04-21T15:27:54;20.30;69.60
32322;DHT22;61553;48.994;8.940;2023-04-21T15:30:20;20.30;68.90
32322;DHT22;61553;48.994;8.940;2023-04-21T15:32:45;20.30;69.70
32322;DHT22;61553;48.994;8.940;2023-04-21T15:35:11;20.30;68.80
32322;DHT22;61553;48.994;8.940;2023-04-21T15:37:36;20.30;68.70
32322;DHT22;61553;48.994;8.940;2023-04-21T15:40:02;20.10;68.80
32322;DHT22;61553;48.994;8.940;2023-04-21T15:42:29;19.80;69.30
32322;DHT22;61553;48.994;8.940;2023-04-21T15:44:55;19.60;70.10
32322;DHT22;61553;48.994;8.940;2023-04-21T15:47:22;19.40;70.50
32322;DHT22;61553;48.994;8.940;2023-04-21T15:49:47;19.20;71.40
32322;DHT22;61553;48.994;8.940;2023-04-21T15:52:13;19.00;72.30